sensor_id;sensor_type;location;lat;lon;timestamp;pressure;altitude;pressure_sealevel;temperature;humidity
63090;BME280;49174;43.198;27.824;2022-09-06T00:01:43;102331.06;;;14.58;88.17
63090;BME280;49174;43.198;27.824;2022-09-06T00:04:09;102328.34;;;14.58;88.40
63090;BME280;49174;43.198;27.824;2022-09-06T00:06:34;102327.53;;;14.58;88.60
63090;BME280;49174;43.198;27.824;2022-09-06T00:09:01;102325.44;;;14.60;89.10
63090;BME280;49174;43.198;27.824;2022-09-06T00:11:27;102327.63;;;14.64;89.38
63090;BME280;49174;43.198;27.824;2022-09-06T00:13:52;102317.78;;;14.63;89.32
63090;BME280;49174;43.198;27.824;2022-09-06T00:16:21;102322.38;;;14.63;88.94
63090;BME280;49174;43.198;27.824;2022-09-06T00:18:48;102316.66;;;14.58;88.75
63090;BME280;49174;43.198;27.824;2022-09-06T00:23:39;102318.88;;;14.54;89.22
63090;BME280;49174;43.198;27.824;2022-09-06T00:26:04;102310.72;;;14.54;88.78
63090;BME280;49174;43.198;27.824;2022-09-06T00:28:30;102314.31;;;14.55;88.57
63090;BME280;49174;43.198;27.824;2022-09-06T00:30:56;102312.81;;;14.52;88.78
63090;BME280;49174;43.198;27.824;2022-09-06T00:33:22;102312.28;;;14.48;88.55
63090;BME280;49174;43.198;27.824;2022-09-06T00:35:48;102311.44;;;14.48;89.03
63090;BME280;49174;43.198;27.824;2022-09-06T00:38:13;102317.53;;;14.50;88.45
63090;BME280;49174;43.198;27.824;2022-09-06T00:40:39;102313.53;;;14.46;88.42
63090;BME280;49174;43.198;27.824;2022-09-06T00:43:06;102312.66;;;14.45;89.00
63090;BME280;49174;43.198;27.824;2022-09-06T00:45:32;102315.09;;;14.40;89.34
63090;BME280;49174;43.198;27.824;2022-09-06T00:47:59;102316.09;;;14.39;90.17
63090;BME280;49174;43.198;27.824;2022-09-06T00:50:25;102317.16;;;14.38;89.82
63090;BME280;49174;43.198;27.824;2022-09-06T00:52:52;102318.16;;;14.37;91.17
63090;BME280;49174;43.198;27.824;2022-09-06T00:55:19;102315.44;;;14.37;91.45
63090;BME280;49174;43.198;27.824;2022-09-06T00:57:46;102320.53;;;14.40;91.82
63090;BME280;49174;43.198;27.824;2022-09-06T01:00:16;102320.03;;;14.37;92.01
63090;BME280;49174;43.198;27.824;2022-09-06T01:02:42;102321.75;;;14.38;92.97
63090;BME280;49174;43.198;27.824;2022-09-06T01:05:08;102326.13;;;14.39;93.26
63090;BME280;49174;43.198;27.824;2022-09-06T01:19:37;102327.28;;;14.44;92.75
63090;BME280;49174;43.198;27.824;2022-09-06T01:30:20;102332.22;;;14.41;93.28
63090;BME280;49174;43.198;27.824;2022-09-06T01:37:59;102332.22;;;14.41;92.89
63090;BME280;49174;43.198;27.824;2022-09-06T01:40:26;102324.25;;;14.39;92.32
63090;BME280;49174;43.198;27.824;2022-09-06T01:42:53;102328.19;;;14.37;92.43
63090;BME280;49174;43.198;27.824;2022-09-06T01:45:24;102326.13;;;14.39;92.42
63090;BME280;49174;43.198;27.824;2022-09-06T01:48:10;102318.81;;;14.39;92.04
63090;BME280;49174;43.198;27.824;2022-09-06T01:50:56;102321.25;;;14.34;92.33
63090;BME280;49174;43.198;27.824;2022-09-06T02:01:22;102313.28;;;14.33;92.07
63090;BME280;49174;43.198;27.824;2022-09-06T02:06:43;102315.03;;;14.25;91.72
63090;BME280;49174;43.198;27.824;2022-09-06T02:09:14;102316.44;;;14.21;91.77
63090;BME280;49174;43.198;27.824;2022-09-06T02:11:46;102310.19;;;14.21;91.94
63090;BME280;49174;43.198;27.824;2022-09-06T02:14:16;102309.31;;;14.20;91.73
63090;BME280;49174;43.198;27.824;2022-09-06T02:16:45;102297.97;;;14.17;91.41
63090;BME280;49174;43.198;27.824;2022-09-06T02:19:25;102307.53;;;14.13;92.05
63090;BME280;49174;43.198;27.824;2022-09-06T02:21:53;102303.47;;;14.08;91.89
63090;BME280;49174;43.198;27.824;2022-09-06T02:24:26;102300.97;;;14.07;92.07
63090;BME280;49174;43.198;27.824;2022-09-06T02:26:54;102295.53;;;14.07;92.43
63090;BME280;49174;43.198;27.824;2022-09-06T02:29:20;102295.88;;;14.04;92.59
63090;BME280;49174;43.198;27.824;2022-09-06T02:31:52;102293.16;;;14.04;91.96
63090;BME280;49174;43.198;27.824;2022-09-06T02:34:20;102294.19;;;14.03;91.90
63090;BME280;49174;43.198;27.824;2022-09-06T02:36:47;102299.31;;;13.98;92.13
63090;BME280;49174;43.198;27.824;2022-09-06T02:39:13;102297.81;;;13.95;92.45
63090;BME280;49174;43.198;27.824;2022-09-06T02:41:41;102294.94;;;13.97;92.85
63090;BME280;49174;43.198;27.824;2022-09-06T02:44:09;102293.06;;;13.97;92.62
63090;BME280;49174;43.198;27.824;2022-09-06T02:46:34;102286.69;;;13.90;92.73
63090;BME280;49174;43.198;27.824;2022-09-06T02:49:00;102289.91;;;13.85;92.92
63090;BME280;49174;43.198;27.824;2022-09-06T02:51:25;102284.97;;;13.89;93.08
63090;BME280;49174;43.198;27.824;2022-09-06T02:53:51;102294.50;;;13.85;93.12
63090;BME280;49174;43.198;27.824;2022-09-06T02:56:16;102294.69;;;13.83;93.75
63090;BME280;49174;43.198;27.824;2022-09-06T02:58:42;102297.03;;;13.86;93.62
63090;BME280;49174;43.198;27.824;2022-09-06T03:01:08;102285.16;;;13.88;93.32
63090;BME280;49174;43.198;27.824;2022-09-06T03:03:33;102291.59;;;13.86;93.19
63090;BME280;49174;43.198;27.824;2022-09-06T03:05:59;102290.28;;;13.82;93.65
63090;BME280;49174;43.198;27.824;2022-09-06T03:08:24;102294.19;;;13.80;93.63
63090;BME280;49174;43.198;27.824;2022-09-06T03:10:52;102297.91;;;13.79;93.42
63090;BME280;49174;43.198;27.824;2022-09-06T03:13:19;102281.84;;;13.77;93.11
63090;BME280;49174;43.198;27.824;2022-09-06T03:15:52;102287.25;;;13.77;93.51
63090;BME280;49174;43.198;27.824;2022-09-06T03:18:18;102285.44;;;13.70;93.69
63090;BME280;49174;43.198;27.824;2022-09-06T03:20:44;102292.75;;;13.69;93.66
63090;BME280;49174;43.198;27.824;2022-09-06T03:23:10;102295.94;;;13.73;93.64
63090;BME280;49174;43.198;27.824;2022-09-06T03:25:35;102297.50;;;13.67;93.46
63090;BME280;49174;43.198;27.824;2022-09-06T03:28:02;102296.72;;;13.58;93.03
63090;BME280;49174;43.198;27.824;2022-09-06T03:30:28;102296.38;;;13.53;93.08
63090;BME280;49174;43.198;27.824;2022-09-06T03:32:53;102298.09;;;13.54;93.07
63090;BME280;49174;43.198;27.824;2022-09-06T03:35:19;102298.63;;;13.50;92.76
63090;BME280;49174;43.198;27.824;2022-09-06T03:37:44;102302.53;;;13.47;92.78
63090;BME280;49174;43.198;27.824;2022-09-06T03:40:10;102292.53;;;13.48;92.88
63090;BME280;49174;43.198;27.824;2022-09-06T03:42:36;102296.44;;;13.45;92.66
63090;BME280;49174;43.198;27.824;2022-09-06T03:45:01;102291.56;;;13.40;92.68
63090;BME280;49174;43.198;27.824;2022-09-06T03:47:27;102292.56;;;13.39;92.60
63090;BME280;49174;43.198;27.824;2022-09-06T03:49:52;102298.66;;;13.41;92.59
63090;BME280;49174;43.198;27.824;2022-09-06T03:52:18;102289.84;;;13.39;92.54
63090;BME280;49174;43.198;27.824;2022-09-06T03:54:43;102301.41;;;13.33;93.05
63090;BME280;49174;43.198;27.824;2022-09-06T03:57:09;102303.28;;;13.33;92.24
63090;BME280;49174;43.198;27.824;2022-09-06T03:59:35;102304.81;;;13.35;92.31
63090;BME280;49174;43.198;27.824;2022-09-06T04:02:00;102307.31;;;13.37;92.28
63090;BME280;49174;43.198;27.824;2022-09-06T04:04:26;102315.13;;;13.40;93.13
63090;BME280;49174;43.198;27.824;2022-09-06T04:06:55;102304.63;;;13.37;93.53
63090;BME280;49174;43.198;27.824;2022-09-06T04:09:20;102306.13;;;13.39;94.42
63090;BME280;49174;43.198;27.824;2022-09-06T04:11:46;102310.72;;;13.39;95.04
63090;BME280;49174;43.198;27.824;2022-09-06T04:14:12;102308.19;;;13.37;95.61
63090;BME280;49174;43.198;27.824;2022-09-06T04:16:37;102321.06;;;13.35;96.47
63090;BME280;49174;43.198;27.824;2022-09-06T04:19:03;102305.28;;;13.39;96.98
63090;BME280;49174;43.198;27.824;2022-09-06T04:21:29;102312.41;;;13.40;96.83
63090;BME280;49174;43.198;27.824;2022-09-06T04:23:54;102306.63;;;13.43;96.91
63090;BME280;49174;43.198;27.824;2022-09-06T04:26:20;102311.50;;;13.48;96.84
63090;BME280;49174;43.198;27.824;2022-09-06T04:28:46;102307.25;;;13.53;96.95
63090;BME280;49174;43.198;27.824;2022-09-06T04:31:11;102310.75;;;13.62;97.23
63090;BME280;49174;43.198;27.824;2022-09-06T04:33:38;102313.41;;;13.70;97.13
63090;BME280;49174;43.198;27.824;2022-09-06T04:36:07;102316.78;;;13.72;97.62
63090;BME280;49174;43.198;27.824;2022-09-06T04:38:35;102311.69;;;13.77;97.16
63090;BME280;49174;43.198;27.824;2022-09-06T04:41:01;102307.56;;;13.81;97.19
63090;BME280;49174;43.198;27.824;2022-09-06T04:43:27;102314.69;;;13.82;97.73
63090;BME280;49174;43.198;27.824;2022-09-06T04:45:52;102311.44;;;13.87;97.32
63090;BME280;49174;43.198;27.824;2022-09-06T04:48:18;102313.66;;;13.83;97.25
63090;BME280;49174;43.198;27.824;2022-09-06T04:50:43;102318.56;;;13.88;97.56
63090;BME280;49174;43.198;27.824;2022-09-06T04:53:09;102323.44;;;13.93;97.46
63090;BME280;49174;43.198;27.824;2022-09-06T04:55:35;102317.66;;;13.96;97.84
63090;BME280;49174;43.198;27.824;2022-09-06T04:58:02;102313.56;;;14.00;98.10
63090;BME280;49174;43.198;27.824;2022-09-06T05:00:30;102312.88;;;13.98;98.67
63090;BME280;49174;43.198;27.824;2022-09-06T05:02:56;102309.81;;;14.01;98.31
63090;BME280;49174;43.198;27.824;2022-09-06T05:05:23;102308.78;;;14.02;97.63
63090;BME280;49174;43.198;27.824;2022-09-06T05:07:52;102308.91;;;14.08;98.19
63090;BME280;49174;43.198;27.824;2022-09-06T05:10:18;102311.75;;;14.15;97.97
63090;BME280;49174;43.198;27.824;2022-09-06T05:12:50;102307.63;;;14.19;97.35
63090;BME280;49174;43.198;27.824;2022-09-06T05:15:16;102309.91;;;14.30;97.01
63090;BME280;49174;43.198;27.824;2022-09-06T05:17:42;102316.66;;;14.35;96.81
63090;BME280;49174;43.198;27.824;2022-09-06T05:20:08;102324.38;;;14.46;96.03
63090;BME280;49174;43.198;27.824;2022-09-06T05:22:35;102327.03;;;14.54;95.74
63090;BME280;49174;43.198;27.824;2022-09-06T05:25:01;102326.56;;;14.65;95.71
63090;BME280;49174;43.198;27.824;2022-09-06T05:27:26;102329.41;;;14.72;95.22
63090;BME280;49174;43.198;27.824;2022-09-06T05:29:52;102328.75;;;14.85;94.77
63090;BME280;49174;43.198;27.824;2022-09-06T05:32:17;102332.03;;;14.95;93.81
63090;BME280;49174;43.198;27.824;2022-09-06T05:34:43;102322.97;;;15.03;93.07
63090;BME280;49174;43.198;27.824;2022-09-06T05:37:08;102322.66;;;15.12;93.10
63090;BME280;49174;43.198;27.824;2022-09-06T05:39:34;102322.66;;;15.27;91.67
63090;BME280;49174;43.198;27.824;2022-09-06T05:41:59;102335.78;;;15.38;91.72
63090;BME280;49174;43.198;27.824;2022-09-06T05:44:25;102324.19;;;15.51;91.73
63090;BME280;49174;43.198;27.824;2022-09-06T05:46:50;102315.34;;;15.64;91.73
63090;BME280;49174;43.198;27.824;2022-09-06T05:49:16;102323.22;;;15.74;89.55
63090;BME280;49174;43.198;27.824;2022-09-06T05:51:42;102319.38;;;15.83;89.18
63090;BME280;49174;43.198;27.824;2022-09-06T05:54:10;102323.66;;;15.92;88.06
63090;BME280;49174;43.198;27.824;2022-09-06T05:56:35;102323.34;;;16.02;86.75
63090;BME280;49174;43.198;27.824;2022-09-06T05:59:01;102324.88;;;16.11;86.20
63090;BME280;49174;43.198;27.824;2022-09-06T06:01:29;102331.69;;;16.22;86.10
63090;BME280;49174;43.198;27.824;2022-09-06T06:03:56;102328.19;;;16.28;84.12
63090;BME280;49174;43.198;27.824;2022-09-06T06:06:22;102321.75;;;16.36;84.75
63090;BME280;49174;43.198;27.824;2022-09-06T06:08:49;102325.19;;;16.44;83.41
63090;BME280;49174;43.198;27.824;2022-09-06T06:11:15;102319.84;;;16.58;83.93
63090;BME280;49174;43.198;27.824;2022-09-06T06:13:41;102317.41;;;16.69;82.44
63090;BME280;49174;43.198;27.824;2022-09-06T06:16:09;102317.72;;;16.81;81.87
63090;BME280;49174;43.198;27.824;2022-09-06T06:18:37;102318.63;;;16.95;80.71
63090;BME280;49174;43.198;27.824;2022-09-06T06:21:11;102325.41;;;17.06;79.70
63090;BME280;49174;43.198;27.824;2022-09-06T06:23:37;102316.00;;;17.15;79.07
63090;BME280;49174;43.198;27.824;2022-09-06T06:26:04;102320.06;;;17.26;77.59
63090;BME280;49174;43.198;27.824;2022-09-06T06:28:30;102315.69;;;17.38;78.70
63090;BME280;49174;43.198;27.824;2022-09-06T06:30:56;102321.41;;;17.50;76.39
63090;BME280;49174;43.198;27.824;2022-09-06T06:33:21;102314.31;;;17.62;76.18
63090;BME280;49174;43.198;27.824;2022-09-06T06:36:04;102305.31;;;17.75;75.69
63090;BME280;49174;43.198;27.824;2022-09-06T06:38:35;102310.81;;;17.88;74.69
63090;BME280;49174;43.198;27.824;2022-09-06T06:41:02;102314.41;;;18.02;74.73
63090;BME280;49174;43.198;27.824;2022-09-06T06:43:28;102312.97;;;18.19;74.23
63090;BME280;49174;43.198;27.824;2022-09-06T06:45:54;102305.41;;;18.35;72.81
63090;BME280;49174;43.198;27.824;2022-09-06T06:48:20;102310.44;;;18.51;72.48
63090;BME280;49174;43.198;27.824;2022-09-06T06:50:46;102308.50;;;18.71;71.41
63090;BME280;49174;43.198;27.824;2022-09-06T06:53:12;102307.06;;;18.89;70.42
63090;BME280;49174;43.198;27.824;2022-09-06T06:55:37;102312.25;;;19.10;70.91
63090;BME280;49174;43.198;27.824;2022-09-06T06:58:03;102308.56;;;19.36;70.72
63090;BME280;49174;43.198;27.824;2022-09-06T07:00:29;102308.44;;;19.63;70.88
63090;BME280;49174;43.198;27.824;2022-09-06T07:02:55;102310.81;;;19.91;70.91
63090;BME280;49174;43.198;27.824;2022-09-06T07:05:21;102309.00;;;20.10;67.76
63090;BME280;49174;43.198;27.824;2022-09-06T07:07:47;102297.22;;;20.35;67.77
63090;BME280;49174;43.198;27.824;2022-09-06T07:10:13;102307.56;;;20.58;65.92
63090;BME280;49174;43.198;27.824;2022-09-06T07:12:38;102313.47;;;20.80;64.01
63090;BME280;49174;43.198;27.824;2022-09-06T07:15:04;102305.63;;;21.02;64.56
63090;BME280;49174;43.198;27.824;2022-09-06T07:17:30;102313.00;;;21.19;59.30
63090;BME280;49174;43.198;27.824;2022-09-06T07:19:55;102312.78;;;21.39;62.22
63090;BME280;49174;43.198;27.824;2022-09-06T07:22:21;102315.50;;;21.58;55.59
63090;BME280;49174;43.198;27.824;2022-09-06T07:24:46;102307.09;;;21.71;53.93
63090;BME280;49174;43.198;27.824;2022-09-06T07:27:12;102312.75;;;21.88;56.36
63090;BME280;49174;43.198;27.824;2022-09-06T07:29:38;102312.69;;;22.06;54.03
63090;BME280;49174;43.198;27.824;2022-09-06T07:32:03;102313.69;;;22.24;51.48
63090;BME280;49174;43.198;27.824;2022-09-06T07:34:29;102312.16;;;22.40;53.45
63090;BME280;49174;43.198;27.824;2022-09-06T07:36:55;102312.53;;;22.55;53.39
63090;BME280;49174;43.198;27.824;2022-09-06T07:39:21;102315.16;;;22.73;53.31
63090;BME280;49174;43.198;27.824;2022-09-06T07:41:47;102313.84;;;22.88;51.30
63090;BME280;49174;43.198;27.824;2022-09-06T07:44:12;102313.56;;;23.01;51.80
63090;BME280;49174;43.198;27.824;2022-09-06T07:46:38;102326.50;;;23.12;51.33
63090;BME280;49174;43.198;27.824;2022-09-06T07:49:04;102322.91;;;23.24;50.18
63090;BME280;49174;43.198;27.824;2022-09-06T07:51:30;102317.25;;;23.30;49.56
63090;BME280;49174;43.198;27.824;2022-09-06T07:53:56;102320.44;;;23.39;47.86
63090;BME280;49174;43.198;27.824;2022-09-06T07:56:23;102316.13;;;23.43;46.56
63090;BME280;49174;43.198;27.824;2022-09-06T07:58:50;102324.47;;;23.48;46.90
63090;BME280;49174;43.198;27.824;2022-09-06T08:01:29;102320.50;;;23.56;45.59
63090;BME280;49174;43.198;27.824;2022-09-06T08:04:02;102321.75;;;23.65;46.57
63090;BME280;49174;43.198;27.824;2022-09-06T08:06:30;102311.34;;;23.67;45.15
63090;BME280;49174;43.198;27.824;2022-09-06T08:08:56;102313.41;;;23.72;46.37
63090;BME280;49174;43.198;27.824;2022-09-06T08:11:24;102325.69;;;23.81;45.13
63090;BME280;49174;43.198;27.824;2022-09-06T08:13:52;102320.03;;;23.88;45.67
63090;BME280;49174;43.198;27.824;2022-09-06T08:16:19;102322.13;;;23.97;44.97
63090;BME280;49174;43.198;27.824;2022-09-06T08:18:52;102323.75;;;24.10;43.95
63090;BME280;49174;43.198;27.824;2022-09-06T08:21:18;102312.53;;;24.17;43.89
63090;BME280;49174;43.198;27.824;2022-09-06T08:23:49;102310.38;;;24.19;44.35
63090;BME280;49174;43.198;27.824;2022-09-06T08:26:16;102308.78;;;24.23;43.44
63090;BME280;49174;43.198;27.824;2022-09-06T08:28:42;102301.41;;;24.28;45.50
63090;BME280;49174;43.198;27.824;2022-09-06T08:31:10;102302.09;;;24.36;44.30
63090;BME280;49174;43.198;27.824;2022-09-06T08:33:37;102303.50;;;24.38;45.87
63090;BME280;49174;43.198;27.824;2022-09-06T08:36:03;102294.25;;;24.44;46.35
63090;BME280;49174;43.198;27.824;2022-09-06T08:38:29;102302.19;;;24.58;45.82
63090;BME280;49174;43.198;27.824;2022-09-06T08:41:26;102287.59;;;24.62;44.57
63090;BME280;49174;43.198;27.824;2022-09-06T08:44:04;102302.28;;;24.63;45.66
63090;BME280;49174;43.198;27.824;2022-09-06T08:46:41;102307.44;;;24.59;45.86
63090;BME280;49174;43.198;27.824;2022-09-06T08:49:10;102302.19;;;24.58;45.62
63090;BME280;49174;43.198;27.824;2022-09-06T08:54:42;102296.31;;;24.37;44.74
63090;BME280;49174;43.198;27.824;2022-09-06T09:00:00;102292.41;;;23.99;48.24
63090;BME280;49174;43.198;27.824;2022-09-06T09:02:27;102295.38;;;23.98;46.74
63090;BME280;49174;43.198;27.824;2022-09-06T09:05:03;102289.03;;;23.97;47.02
63090;BME280;49174;43.198;27.824;2022-09-06T09:10:07;102281.38;;;23.99;46.70
63090;BME280;49174;43.198;27.824;2022-09-06T09:12:40;102279.16;;;23.84;47.15
63090;BME280;49174;43.198;27.824;2022-09-06T09:15:09;102270.97;;;23.90;46.81
63090;BME280;49174;43.198;27.824;2022-09-06T09:17:36;102273.84;;;23.95;46.06
63090;BME280;49174;43.198;27.824;2022-09-06T09:20:03;102268.16;;;24.01;45.84
63090;BME280;49174;43.198;27.824;2022-09-06T09:22:29;102268.31;;;24.12;45.36
63090;BME280;49174;43.198;27.824;2022-09-06T09:24:56;102270.56;;;24.15;45.64
63090;BME280;49174;43.198;27.824;2022-09-06T09:27:25;102258.72;;;24.48;45.37
63090;BME280;49174;43.198;27.824;2022-09-06T09:32:38;102256.84;;;24.53;43.19
63090;BME280;49174;43.198;27.824;2022-09-06T09:35:30;102247.63;;;24.65;42.49
63090;BME280;49174;43.198;27.824;2022-09-06T09:38:07;102254.28;;;24.47;43.81
63090;BME280;49174;43.198;27.824;2022-09-06T09:40:37;102252.34;;;24.86;44.27
63090;BME280;49174;43.198;27.824;2022-09-06T09:43:11;102260.09;;;25.11;44.43
63090;BME280;49174;43.198;27.824;2022-09-06T09:45:37;102258.63;;;25.04;43.96
63090;BME280;49174;43.198;27.824;2022-09-06T09:48:35;102258.59;;;25.21;44.14
63090;BME280;49174;43.198;27.824;2022-09-06T09:51:22;102254.84;;;25.32;43.96
63090;BME280;49174;43.198;27.824;2022-09-06T09:53:53;102250.63;;;25.24;44.43
63090;BME280;49174;43.198;27.824;2022-09-06T10:01:43;102250.66;;;25.07;44.27
63090;BME280;49174;43.198;27.824;2022-09-06T10:04:11;102240.47;;;25.30;45.54
63090;BME280;49174;43.198;27.824;2022-09-06T10:06:41;102240.38;;;25.47;44.68
63090;BME280;49174;43.198;27.824;2022-09-06T10:09:21;102240.66;;;25.23;44.40
63090;BME280;49174;43.198;27.824;2022-09-06T10:11:56;102238.84;;;25.34;45.09
63090;BME280;49174;43.198;27.824;2022-09-06T10:14:29;102230.72;;;25.81;46.60
63090;BME280;49174;43.198;27.824;2022-09-06T10:16:56;102234.31;;;25.50;45.13
63090;BME280;49174;43.198;27.824;2022-09-06T10:19:29;102233.44;;;25.76;45.07
63090;BME280;49174;43.198;27.824;2022-09-06T10:22:06;102229.41;;;25.84;41.71
63090;BME280;49174;43.198;27.824;2022-09-06T10:27:27;102226.84;;;25.77;42.96
63090;BME280;49174;43.198;27.824;2022-09-06T10:30:03;102230.44;;;25.51;42.54
63090;BME280;49174;43.198;27.824;2022-09-06T10:40:40;102208.69;;;25.59;42.32
63090;BME280;49174;43.198;27.824;2022-09-06T10:43:16;102209.91;;;25.41;43.22
63090;BME280;49174;43.198;27.824;2022-09-06T10:46:02;102198.03;;;25.41;44.16
63090;BME280;49174;43.198;27.824;2022-09-06T10:48:30;102197.78;;;25.75;43.68
63090;BME280;49174;43.198;27.824;2022-09-06T10:54:00;102195.00;;;26.07;42.41
63090;BME280;49174;43.198;27.824;2022-09-06T10:57:15;102203.91;;;26.14;42.09
63090;BME280;49174;43.198;27.824;2022-09-06T10:59:32;102201.47;;;25.53;41.94
63090;BME280;49174;43.198;27.824;2022-09-06T11:02:29;102195.50;;;25.67;41.95
63090;BME280;49174;43.198;27.824;2022-09-06T11:05:05;102197.41;;;25.34;42.43
63090;BME280;49174;43.198;27.824;2022-09-06T11:07:36;102193.88;;;25.38;42.38
63090;BME280;49174;43.198;27.824;2022-09-06T11:10:20;102196.41;;;25.18;42.49
63090;BME280;49174;43.198;27.824;2022-09-06T11:12:53;102195.34;;;24.75;43.54
63090;BME280;49174;43.198;27.824;2022-09-06T11:15:21;102196.59;;;24.89;42.15
63090;BME280;49174;43.198;27.824;2022-09-06T11:28:21;102182.41;;;25.25;40.56
63090;BME280;49174;43.198;27.824;2022-09-06T11:30:55;102176.38;;;25.06;42.54
63090;BME280;49174;43.198;27.824;2022-09-06T11:33:29;102178.22;;;25.22;42.47
63090;BME280;49174;43.198;27.824;2022-09-06T11:38:52;102182.47;;;25.08;41.34
63090;BME280;49174;43.198;27.824;2022-09-06T11:41:19;102182.78;;;25.11;40.93
63090;BME280;49174;43.198;27.824;2022-09-06T11:46:55;102173.09;;;25.09;42.23
63090;BME280;49174;43.198;27.824;2022-09-06T11:49:35;102184.13;;;25.31;42.88
63090;BME280;49174;43.198;27.824;2022-09-06T11:52:05;102169.88;;;25.17;41.22
63090;BME280;49174;43.198;27.824;2022-09-06T11:54:47;102168.75;;;24.91;42.67
63090;BME280;49174;43.198;27.824;2022-09-06T11:57:16;102175.41;;;25.17;41.63
63090;BME280;49174;43.198;27.824;2022-09-06T12:02:38;102166.13;;;24.79;41.40
63090;BME280;49174;43.198;27.824;2022-09-06T12:07:33;102163.03;;;24.97;43.14
63090;BME280;49174;43.198;27.824;2022-09-06T12:12:54;102158.44;;;25.30;41.26
63090;BME280;49174;43.198;27.824;2022-09-06T12:18:07;102161.31;;;25.46;42.97
63090;BME280;49174;43.198;27.824;2022-09-06T12:26:01;102159.13;;;24.93;41.16
63090;BME280;49174;43.198;27.824;2022-09-06T12:28:36;102150.41;;;24.80;42.97
63090;BME280;49174;43.198;27.824;2022-09-06T12:31:30;102151.66;;;25.16;41.38
63090;BME280;49174;43.198;27.824;2022-09-06T12:34:05;102149.53;;;25.01;42.42
63090;BME280;49174;43.198;27.824;2022-09-06T12:36:32;102153.91;;;24.97;42.26
63090;BME280;49174;43.198;27.824;2022-09-06T12:39:09;102148.16;;;25.04;44.48
63090;BME280;49174;43.198;27.824;2022-09-06T12:41:44;102146.41;;;24.48;42.19
63090;BME280;49174;43.198;27.824;2022-09-06T12:44:14;102146.31;;;24.60;42.28
63090;BME280;49174;43.198;27.824;2022-09-06T12:46:48;102151.59;;;24.89;41.99
63090;BME280;49174;43.198;27.824;2022-09-06T12:49:16;102148.78;;;24.84;42.00
63090;BME280;49174;43.198;27.824;2022-09-06T12:51:43;102145.34;;;24.71;42.20
63090;BME280;49174;43.198;27.824;2022-09-06T12:54:21;102141.34;;;24.62;42.47
63090;BME280;49174;43.198;27.824;2022-09-06T12:56:48;102152.34;;;24.40;43.88
63090;BME280;49174;43.198;27.824;2022-09-06T12:59:24;102137.44;;;24.58;44.76
63090;BME280;49174;43.198;27.824;2022-09-06T13:06:58;102132.75;;;24.59;42.89
63090;BME280;49174;43.198;27.824;2022-09-06T13:09:26;102134.75;;;24.63;42.43
63090;BME280;49174;43.198;27.824;2022-09-06T13:11:59;102130.00;;;24.59;41.67
63090;BME280;49174;43.198;27.824;2022-09-06T13:14:29;102125.53;;;24.52;41.27
63090;BME280;49174;43.198;27.824;2022-09-06T13:16:56;102136.91;;;24.39;42.32
63090;BME280;49174;43.198;27.824;2022-09-06T13:19:36;102139.41;;;24.41;41.44
63090;BME280;49174;43.198;27.824;2022-09-06T13:22:04;102145.09;;;24.34;43.34
63090;BME280;49174;43.198;27.824;2022-09-06T13:27:00;102140.28;;;24.24;42.64
63090;BME280;49174;43.198;27.824;2022-09-06T13:29:56;102136.72;;;24.24;43.79
63090;BME280;49174;43.198;27.824;2022-09-06T13:32:22;102129.53;;;24.06;43.64
63090;BME280;49174;43.198;27.824;2022-09-06T13:34:49;102135.75;;;23.96;44.38
63090;BME280;49174;43.198;27.824;2022-09-06T13:37:28;102136.19;;;23.88;43.35
63090;BME280;49174;43.198;27.824;2022-09-06T13:39:55;102130.84;;;23.81;45.23
63090;BME280;49174;43.198;27.824;2022-09-06T13:44:58;102130.66;;;23.54;46.20
63090;BME280;49174;43.198;27.824;2022-09-06T13:47:27;102130.81;;;23.64;47.16
63090;BME280;49174;43.198;27.824;2022-09-06T13:49:53;102125.69;;;23.85;46.14
63090;BME280;49174;43.198;27.824;2022-09-06T13:52:20;102131.25;;;23.90;44.12
63090;BME280;49174;43.198;27.824;2022-09-06T13:54:45;102134.59;;;23.75;45.22
63090;BME280;49174;43.198;27.824;2022-09-06T13:57:13;102136.00;;;23.61;43.55
63090;BME280;49174;43.198;27.824;2022-09-06T13:59:39;102140.81;;;23.37;44.97
63090;BME280;49174;43.198;27.824;2022-09-06T14:02:09;102137.16;;;23.48;46.47
63090;BME280;49174;43.198;27.824;2022-09-06T14:04:36;102131.09;;;23.63;44.68
63090;BME280;49174;43.198;27.824;2022-09-06T14:07:02;102138.84;;;23.49;42.82
63090;BME280;49174;43.198;27.824;2022-09-06T14:09:28;102134.25;;;23.55;44.54
63090;BME280;49174;43.198;27.824;2022-09-06T14:11:54;102139.34;;;23.46;43.63
63090;BME280;49174;43.198;27.824;2022-09-06T14:14:20;102134.47;;;23.36;42.52
63090;BME280;49174;43.198;27.824;2022-09-06T14:16:46;102129.97;;;23.30;43.86
63090;BME280;49174;43.198;27.824;2022-09-06T14:19:14;102127.13;;;23.25;43.17
63090;BME280;49174;43.198;27.824;2022-09-06T14:21:40;102129.47;;;23.33;43.15
63090;BME280;49174;43.198;27.824;2022-09-06T14:24:06;102135.25;;;23.32;42.92
63090;BME280;49174;43.198;27.824;2022-09-06T14:26:32;102130.47;;;23.27;43.16
63090;BME280;49174;43.198;27.824;2022-09-06T14:28:59;102121.50;;;23.03;43.21
63090;BME280;49174;43.198;27.824;2022-09-06T14:31:27;102122.72;;;22.95;42.40
63090;BME280;49174;43.198;27.824;2022-09-06T14:33:56;102121.41;;;22.98;42.90
63090;BME280;49174;43.198;27.824;2022-09-06T14:36:24;102128.25;;;22.84;41.66
63090;BME280;49174;43.198;27.824;2022-09-06T14:38:50;102123.28;;;22.69;42.17
63090;BME280;49174;43.198;27.824;2022-09-06T14:41:17;102119.31;;;22.77;42.99